Terminal Aerodrome Forecast
Issued by NWS Chicago, IL

Home | Current Version | Previous Version | Text Only | Print | Product List | Glossary On
Versions: 1 2 3 4 5 6 7 8 9 10 11 12 13 14 15 16 17 18 19 20 21 22 23 24 25 26 27 28 29 30 31 32 33 34 35 36
000
FTUS43 KLOT 292200 AAC
TAFRFD
TAF AMD
KRFD 292214Z 2922/3018 17010KT P6SM FEW030 SCT080
     FM300430 20009KT P6SM VCSH FEW035 BKN060
      TEMPO 3006/3010 -TSRA BKN035CB
     FM301400 22013G21KT P6SM VCSH BKN035=

USA.gov is the U.S. government's official web portal to all federal, state and local government web resources and services.